createdAt,value
2022-08-11T00:02:06.672Z,1.45
2022-08-11T00:07:19.220Z,1.35
2022-08-11T00:12:22.429Z,1.33
2022-08-11T00:17:31.376Z,1.27
2022-08-11T00:22:36.284Z,1.30
2022-08-11T00:27:41.614Z,1.30
2022-08-11T00:32:58.913Z,1.60
2022-08-11T00:38:03.965Z,1.40
2022-08-11T00:43:21.142Z,1.30
2022-08-11T00:48:30.862Z,1.30
2022-08-11T00:53:49.976Z,1.30
2022-08-11T00:59:34.290Z,1.67
2022-08-11T01:05:14.419Z,1.50
2022-08-11T01:10:46.351Z,1.40
2022-08-11T01:16:30.966Z,1.50
2022-08-11T01:22:19.479Z,1.92
2022-08-11T01:27:50.773Z,1.45
2022-08-11T01:33:38.671Z,1.30
2022-08-11T01:39:20.366Z,1.50
2022-08-11T01:44:58.381Z,1.60
2022-08-11T01:50:11.025Z,1.60
2022-08-11T01:55:19.303Z,1.50
2022-08-11T02:00:28.930Z,1.55
2022-08-11T02:06:01.071Z,1.30
2022-08-11T02:11:35.805Z,1.42
2022-08-11T02:16:58.213Z,1.77
2022-08-11T02:22:18.236Z,1.45
2022-08-11T02:27:28.034Z,1.42
2022-08-11T02:32:53.314Z,1.45
2022-08-11T02:38:11.066Z,1.30
2022-08-11T02:43:25.641Z,1.60
2022-08-11T02:49:00.990Z,1.25
2022-08-11T02:54:11.708Z,1.60
2022-08-11T02:59:50.158Z,1.50
2022-08-11T03:05:03.946Z,1.52
2022-08-11T03:10:14.235Z,1.20
2022-08-11T03:15:44.710Z,1.40
2022-08-11T03:20:58.822Z,1.50
2022-08-11T03:26:06.983Z,1.70
2022-08-11T03:31:24.778Z,1.77
2022-08-11T03:37:16.764Z,1.40
2022-08-11T03:42:31.218Z,1.58
2022-08-11T03:47:52.634Z,1.80
2022-08-11T03:53:11.727Z,1.50
2022-08-11T03:58:39.608Z,1.60
2022-08-11T04:03:59.645Z,1.75
2022-08-11T04:09:46.382Z,1.50
2022-08-11T04:15:30.615Z,1.70
2022-08-11T04:21:10.481Z,1.77
2022-08-11T04:26:54.918Z,1.80
2022-08-11T04:32:11.235Z,1.80
2022-08-11T04:37:40.955Z,1.60
2022-08-11T04:44:02.447Z,1.80
2022-08-11T04:49:44.568Z,1.90
2022-08-11T04:55:28.468Z,2.03
2022-08-11T05:00:57.428Z,1.70
2022-08-11T05:06:37.127Z,1.90
2022-08-11T05:12:10.040Z,1.67
2022-08-11T05:17:34.270Z,1.90
2022-08-11T05:22:55.460Z,1.80
2022-08-11T05:28:23.754Z,1.90
2022-08-11T05:33:51.375Z,2.17
2022-08-11T05:39:16.292Z,2.70
2022-08-11T05:44:40.021Z,2.15
2022-08-11T05:50:00.922Z,1.90
2022-08-11T05:55:23.576Z,2.15
2022-08-11T06:00:28.431Z,4.40
2022-08-11T06:05:38.445Z,2.70
2022-08-11T06:10:47.791Z,2.17
2022-08-11T06:15:53.352Z,2.05
2022-08-11T06:20:58.486Z,1.80
2022-08-11T06:26:02.532Z,2.10
2022-08-11T06:31:14.227Z,4.55
2022-08-11T06:36:26.475Z,3.00
2022-08-11T06:41:37.679Z,2.38
2022-08-11T06:46:44.378Z,2.10
2022-08-11T06:51:50.306Z,2.53
2022-08-11T06:57:29.469Z,2.42
2022-08-11T07:02:38.500Z,2.90
2022-08-11T07:08:41.551Z,2.00
2022-08-11T07:14:02.819Z,2.40
2022-08-11T07:19:26.210Z,1.90
2022-08-11T07:25:02.038Z,2.10
2022-08-11T07:30:08.508Z,2.90
2022-08-11T07:35:16.846Z,2.40
2022-08-11T07:40:24.003Z,2.33
2022-08-11T07:45:46.130Z,2.10
2022-08-11T07:51:08.015Z,2.00
2022-08-11T07:56:17.317Z,2.20
2022-08-11T08:01:43.841Z,2.55
2022-08-11T08:07:06.123Z,2.30
2022-08-11T08:12:27.883Z,2.40
2022-08-11T08:18:20.878Z,2.20
2022-08-11T08:23:14.974Z,2.38
2022-08-11T08:28:20.369Z,2.47
2022-08-11T08:33:25.389Z,2.22
2022-08-11T08:38:29.842Z,2.90
2022-08-11T08:43:48.741Z,2.50
2022-08-11T08:48:53.787Z,3.20
2022-08-11T08:54:04.839Z,4.53
2022-08-11T08:59:08.822Z,3.42
2022-08-11T09:04:15.225Z,2.40
2022-08-11T09:09:22.913Z,2.40
2022-08-11T09:14:48.817Z,2.35
2022-08-11T09:20:00.257Z,2.55
2022-08-11T09:25:25.465Z,5.22
2022-08-11T09:30:29.111Z,3.85
2022-08-11T09:35:36.719Z,2.80
2022-08-11T09:40:44.858Z,2.65
2022-08-11T09:45:51.375Z,2.70
2022-08-11T09:50:57.329Z,3.15
2022-08-11T09:56:24.610Z,2.65
2022-08-11T10:01:31.737Z,2.53
2022-08-11T10:06:55.694Z,2.67
2022-08-11T10:12:03.000Z,2.47
2022-08-11T10:17:09.169Z,4.88
2022-08-11T10:22:32.997Z,3.80
2022-08-11T10:28:17.476Z,3.85
2022-08-11T10:33:37.814Z,3.38
2022-08-11T10:38:42.796Z,3.08
2022-08-11T10:44:02.087Z,2.97
2022-08-11T10:49:07.594Z,2.55
2022-08-11T10:54:28.407Z,3.00
2022-08-11T10:59:35.651Z,2.78
2022-08-11T11:04:50.910Z,2.60
2022-08-11T11:09:58.798Z,5.57
2022-08-11T11:15:22.943Z,3.40
2022-08-11T11:20:36.078Z,3.50
2022-08-11T11:26:09.842Z,3.05
2022-08-11T11:31:25.415Z,2.97
2022-08-11T11:36:34.047Z,2.63
2022-08-11T11:41:37.566Z,2.50
2022-08-11T11:46:45.944Z,2.70
2022-08-11T11:51:52.565Z,2.50
2022-08-11T11:56:57.420Z,2.53
2022-08-11T12:02:11.674Z,9.63
2022-08-11T12:07:33.240Z,6.57
2022-08-11T12:12:54.099Z,5.40
2022-08-11T12:18:01.008Z,4.15
2022-08-11T12:23:21.503Z,4.03
2022-08-11T12:28:24.910Z,3.60
2022-08-11T12:33:37.399Z,6.03
2022-08-11T12:38:42.637Z,17.05
2022-08-11T12:44:07.224Z,10.52
2022-08-11T12:49:31.969Z,6.32
2022-08-11T12:54:41.278Z,5.97
2022-08-11T13:00:02.375Z,4.75
2022-08-11T13:05:09.168Z,3.97
2022-08-11T13:10:17.031Z,3.67
2022-08-11T13:15:23.796Z,5.70
2022-08-11T13:20:29.122Z,9.63
2022-08-11T13:25:33.833Z,6.75
2022-08-11T13:30:54.433Z,6.35
2022-08-11T13:35:59.332Z,4.90
2022-08-11T13:41:23.075Z,4.30
2022-08-11T13:46:26.687Z,5.97
2022-08-11T13:51:37.411Z,7.18
2022-08-11T13:56:43.953Z,4.78
2022-08-11T14:02:21.494Z,4.60
2022-08-11T14:07:19.912Z,3.80
2022-08-11T14:12:39.583Z,4.72
2022-08-11T14:17:48.355Z,4.28
2022-08-11T14:22:53.869Z,3.55
2022-08-11T14:28:32.415Z,3.28
2022-08-11T14:33:20.577Z,3.13
2022-08-11T14:38:25.728Z,3.40
2022-08-11T14:44:13.215Z,3.13
2022-08-11T14:49:10.384Z,3.45
2022-08-11T14:54:33.405Z,3.05
2022-08-11T14:59:37.374Z,9.35
2022-08-11T15:04:41.043Z,5.72
2022-08-11T15:10:11.814Z,4.88
2022-08-11T15:15:28.810Z,5.57
2022-08-11T15:20:53.479Z,4.68
2022-08-11T15:26:01.747Z,3.78
2022-08-11T15:31:22.645Z,3.47
2022-08-11T15:36:45.297Z,2.95
2022-08-11T15:42:18.121Z,2.95
2022-08-11T15:47:27.191Z,2.40
2022-08-11T15:52:39.257Z,2.60
2022-08-11T15:58:03.054Z,2.55
2022-08-11T16:03:25.727Z,2.50
2022-08-11T16:08:49.788Z,2.95
2022-08-11T16:14:14.587Z,2.47
2022-08-11T16:19:20.171Z,2.47
2022-08-11T16:27:02.079Z,2.28
2022-08-11T16:29:53.443Z,2.50
2022-08-11T16:35:17.629Z,2.13
2022-08-11T16:40:23.382Z,2.30
2022-08-11T16:45:46.642Z,2.22
2022-08-11T16:50:49.983Z,2.35
2022-08-11T16:55:55.466Z,2.38
2022-08-11T17:01:02.398Z,2.30
2022-08-11T17:06:25.586Z,2.20
2022-08-11T17:11:49.088Z,2.20
2022-08-11T17:16:54.176Z,2.25
2022-08-11T17:22:16.368Z,2.67
2022-08-11T17:27:20.940Z,3.30
2022-08-11T17:32:57.082Z,2.50
2022-08-11T17:38:06.479Z,2.38
2022-08-11T17:43:27.938Z,2.70
2022-08-11T17:48:36.082Z,2.63
2022-08-11T17:54:24.685Z,2.53
2022-08-11T17:59:49.235Z,2.60
2022-08-11T18:04:55.733Z,2.53
2022-08-11T18:10:16.746Z,2.60
2022-08-11T18:15:37.528Z,2.60
2022-08-11T18:21:12.205Z,2.40
2022-08-11T18:26:37.947Z,2.63
2022-08-11T18:32:05.730Z,2.70
2022-08-11T18:37:31.571Z,2.65
2022-08-11T18:42:53.251Z,2.60
2022-08-11T18:48:19.447Z,2.40
2022-08-11T18:53:45.003Z,2.40
2022-08-11T18:59:08.339Z,2.15
2022-08-11T19:04:30.648Z,2.20
2022-08-11T19:09:54.866Z,2.08
2022-08-11T19:15:17.226Z,2.60
2022-08-11T19:20:41.120Z,2.20
2022-08-11T19:26:05.469Z,4.50
2022-08-11T19:31:26.965Z,5.80
2022-08-11T19:36:48.635Z,3.08
2022-08-11T19:42:11.824Z,2.50
2022-08-11T19:47:35.245Z,2.50
2022-08-11T19:52:58.143Z,2.70
2022-08-11T19:58:21.078Z,2.38
2022-08-11T20:03:41.887Z,2.63
2022-08-11T20:09:05.515Z,2.30
2022-08-11T20:14:29.738Z,2.28
2022-08-11T20:19:56.433Z,2.20
2022-08-11T20:25:17.605Z,2.20
2022-08-11T20:30:40.114Z,2.30
2022-08-11T20:36:00.718Z,2.58
2022-08-11T20:41:23.022Z,1.92
2022-08-11T20:46:46.950Z,2.25
2022-08-11T20:52:09.136Z,2.08
2022-08-11T20:57:54.415Z,2.00
2022-08-11T21:03:14.078Z,1.77
2022-08-11T21:08:56.580Z,2.13
2022-08-11T21:14:20.369Z,1.85
2022-08-11T21:20:00.139Z,1.83
2022-08-11T21:25:26.002Z,1.88
2022-08-11T21:30:48.673Z,1.58
2022-08-11T21:36:10.800Z,1.90
2022-08-11T21:41:32.960Z,2.08
2022-08-11T21:46:54.665Z,1.80
2022-08-11T21:52:16.673Z,1.80
2022-08-11T21:57:37.503Z,1.70
2022-08-11T22:03:09.554Z,1.60
2022-08-11T22:08:32.315Z,1.90
2022-08-11T22:14:01.259Z,1.60
2022-08-11T22:19:28.735Z,1.60
2022-08-11T22:24:51.523Z,1.80
2022-08-11T22:30:11.804Z,1.77
2022-08-11T22:35:32.684Z,1.70
2022-08-11T22:40:55.295Z,1.75
2022-08-11T22:46:16.487Z,1.55
2022-08-11T22:51:38.383Z,1.70
2022-08-11T22:57:00.452Z,1.73
2022-08-11T23:02:22.347Z,2.05
2022-08-11T23:07:51.534Z,1.63
2022-08-11T23:13:14.302Z,1.70
2022-08-11T23:18:43.327Z,1.88
2022-08-11T23:24:04.564Z,2.03
2022-08-11T23:29:28.054Z,1.85
2022-08-11T23:35:04.644Z,1.40
2022-08-11T23:40:40.560Z,1.60
2022-08-11T23:46:02.200Z,1.70
2022-08-11T23:51:24.621Z,1.52
2022-08-11T23:57:01.504Z,1.67
